Time;durP1;ratioP1;P1;durP2;ratioP2;P2;SDS_P1;SDS_P2;PMS_P1;PMS_P2;Temp;Humidity;BMP_temperature;BMP_pressure;BME280_temperature;BME280_humidity;BME280_pressure;Samples;Min_cycle;Max_cycle;Signal;HPM_P1;HPM_P2
2021/05/27 00:01:52;;;;;;;0.55;0.00;;;;;;;;;;5034936;28;20777;-67
2021/05/27 00:04:18;;;;;;;0.15;0.03;;;;;;;;;;5034982;28;20033;-67
2021/05/27 00:06:43;;;;;;;0.52;0.20;;;;;;;;;;5034716;28;20036;-68
2021/05/27 00:09:08;;;;;;;0.40;0.05;;;;;;;;;;5034976;28;20014;-67
2021/05/27 00:11:33;;;;;;;0.40;0.10;;;;;;;;;;5040235;28;20017;-67
2021/05/27 00:13:59;;;;;;;0.20;0.10;;;;;;;;;;5054033;28;20737;-67
2021/05/27 00:16:24;;;;;;;0.30;0.00;;;;;;;;;;5053311;28;20029;-67
2021/05/27 00:18:52;;;;;;;0.15;0.00;;;;;;;;;;5054629;28;20468;-67
2021/05/27 00:21:18;;;;;;;0.20;0.10;;;;;;;;;;5054693;28;20070;-68
2021/05/27 00:23:43;;;;;;;0.20;0.10;;;;;;;;;;5054134;28;20052;-69
2021/05/27 00:26:08;;;;;;;0.23;0.10;;;;;;;;;;5054594;28;20029;-66
2021/05/27 00:28:33;;;;;;;0.13;0.00;;;;;;;;;;5054269;28;20294;-67
2021/05/27 00:30:58;;;;;;;0.77;0.10;;;;;;;;;;5054435;28;20265;-67
2021/05/27 00:33:24;;;;;;;0.15;0.10;;;;;;;;;;5054411;28;20414;-67
2021/05/27 00:35:49;;;;;;;0.55;0.20;;;;;;;;;;5054233;28;20021;-68
2021/05/27 00:38:14;;;;;;;0.93;0.25;;;;;;;;;;5054370;28;20020;-67
2021/05/27 00:40:39;;;;;;;0.70;0.17;;;;;;;;;;5053995;28;20037;-66
2021/05/27 00:43:05;;;;;;;0.30;0.20;;;;;;;;;;5048070;28;20276;-67
2021/05/27 00:45:30;;;;;;;0.90;0.10;;;;;;;;;;5035112;28;20358;-68
2021/05/27 00:47:55;;;;;;;0.20;0.17;;;;;;;;;;5034136;28;20524;-67
2021/05/27 00:50:21;;;;;;;1.17;0.20;;;;;;;;;;5033179;28;20014;-68
2021/05/27 00:52:47;;;;;;;0.03;0.00;;;;;;;;;;5033958;28;20025;-68
2021/05/27 00:55:13;;;;;;;1.17;0.20;;;;;;;;;;5034161;28;20037;-67
2021/05/27 00:57:38;;;;;;;0.57;0.10;;;;;;;;;;5033802;28;20376;-66
2021/05/27 01:00:08;;;;;;;0.03;0.00;;;;;;;;;;5034056;28;20022;-67
2021/05/27 01:02:33;;;;;;;0.85;0.10;;;;;;;;;;5032502;28;20379;-67
2021/05/27 01:04:58;;;;;;;0.75;0.10;;;;;;;;;;5033885;28;20033;-67
2021/05/27 01:07:23;;;;;;;0.43;0.08;;;;;;;;;;5033831;28;20092;-68
2021/05/27 01:09:49;;;;;;;0.22;0.03;;;;;;;;;;5033686;28;20048;-66
2021/05/27 01:12:14;;;;;;;0.43;0.17;;;;;;;;;;5033847;28;20025;-67
2021/05/27 01:17:24;;;;;;;1.20;0.20;;;;;;;;;;5053864;28;20253;-65
2021/05/27 01:19:53;;;;;;;2.90;0.10;;;;;;;;;;5053414;28;20388;-67
2021/05/27 01:22:21;;;;;;;0.82;0.10;;;;;;;;;;5053400;28;20044;-67
2021/05/27 01:24:46;;;;;;;0.20;0.00;;;;;;;;;;5053188;28;20036;-67
2021/05/27 01:27:12;;;;;;;0.38;0.20;;;;;;;;;;5053436;28;20017;-67
2021/05/27 01:29:37;;;;;;;0.95;0.20;;;;;;;;;;5053150;28;20021;-67
2021/05/27 01:32:02;;;;;;;1.10;0.20;;;;;;;;;;5053314;28;20029;-66
2021/05/27 01:34:27;;;;;;;0.40;0.10;;;;;;;;;;5053110;28;20098;-67
2021/05/27 01:36:53;;;;;;;1.30;0.10;;;;;;;;;;5053165;28;20036;-68
2021/05/27 01:39:18;;;;;;;0.10;0.00;;;;;;;;;;5053177;28;20296;-68
2021/05/27 01:41:43;;;;;;;0.30;0.00;;;;;;;;;;5052988;28;20079;-66
2021/05/27 01:44:08;;;;;;;0.10;0.07;;;;;;;;;;5053373;28;20278;-66
2021/05/27 01:46:33;;;;;;;0.22;0.22;;;;;;;;;;5035811;28;20762;-67
2021/05/27 01:48:59;;;;;;;0.15;0.05;;;;;;;;;;5044577;28;20043;-68
2021/05/27 01:51:24;;;;;;;0.52;0.10;;;;;;;;;;5052981;28;20091;-67
2021/05/27 01:53:49;;;;;;;2.92;0.10;;;;;;;;;;5052398;28;20048;-68
2021/05/27 01:56:14;;;;;;;0.87;0.10;;;;;;;;;;5052972;28;20025;-66
2021/05/27 01:58:39;;;;;;;0.65;0.10;;;;;;;;;;5052597;28;20701;-67
2021/05/27 02:01:05;;;;;;;0.98;0.15;;;;;;;;;;5052807;28;20025;-67
2021/05/27 02:03:30;;;;;;;1.25;0.10;;;;;;;;;;5052457;28;20033;-67
2021/05/27 02:05:55;;;;;;;2.00;0.22;;;;;;;;;;5049715;28;20025;-67
2021/05/27 02:08:21;;;;;;;0.25;0.05;;;;;;;;;;5052789;28;20025;-68
2021/05/27 02:10:46;;;;;;;0.08;0.00;;;;;;;;;;5052741;28;20021;-66
2021/05/27 02:13:11;;;;;;;1.85;0.15;;;;;;;;;;5051446;28;20020;-66
2021/05/27 02:15:37;;;;;;;0.70;0.10;;;;;;;;;;5052348;28;20057;-67
2021/05/27 02:18:02;;;;;;;1.38;0.20;;;;;;;;;;5050515;28;20020;-67
2021/05/27 02:20:27;;;;;;;0.45;0.05;;;;;;;;;;5052330;28;20029;-67
2021/05/27 02:22:53;;;;;;;0.27;0.13;;;;;;;;;;5052292;28;20044;-68
2021/05/27 02:25:18;;;;;;;0.33;0.00;;;;;;;;;;5052534;28;20296;-67
2021/05/27 02:27:43;;;;;;;0.63;0.10;;;;;;;;;;5052269;28;20253;-65
2021/05/27 02:30:08;;;;;;;0.03;0.00;;;;;;;;;;5052564;28;20033;-67
2021/05/27 02:32:34;;;;;;;0.25;0.10;;;;;;;;;;5052161;28;20464;-68
2021/05/27 02:34:59;;;;;;;0.00;0.00;;;;;;;;;;5051803;28;20464;-68
2021/05/27 02:37:24;;;;;;;0.30;0.10;;;;;;;;;;5052437;28;20017;-68
2021/05/27 02:39:49;;;;;;;0.00;0.00;;;;;;;;;;5052251;28;20807;-67
2021/05/27 02:42:14;;;;;;;0.75;0.10;;;;;;;;;;5052473;28;20265;-67
2021/05/27 02:44:40;;;;;;;0.20;0.20;;;;;;;;;;5052063;28;20497;-67
2021/05/27 02:47:05;;;;;;;0.40;0.10;;;;;;;;;;5052360;28;20250;-67
2021/05/27 02:49:30;;;;;;;0.10;0.10;;;;;;;;;;5051986;28;20025;-68
2021/05/27 02:51:55;;;;;;;0.85;0.35;;;;;;;;;;5052503;28;20290;-66
2021/05/27 02:54:20;;;;;;;0.50;0.10;;;;;;;;;;5052293;28;20033;-67
2021/05/27 02:56:45;;;;;;;0.30;0.10;;;;;;;;;;5052018;28;20021;-67
2021/05/27 02:59:11;;;;;;;0.25;0.10;;;;;;;;;;5052255;28;20570;-67
2021/05/27 03:01:36;;;;;;;1.08;0.10;;;;;;;;;;5052020;28;20033;-68
2021/05/27 03:04:01;;;;;;;1.23;0.10;;;;;;;;;;5051342;28;20021;-67
2021/05/27 03:06:27;;;;;;;0.40;0.25;;;;;;;;;;5054753;28;20025;-66
2021/05/27 03:08:52;;;;;;;0.68;0.13;;;;;;;;;;5055955;28;20021;-67
2021/05/27 03:11:18;;;;;;;0.25;0.00;;;;;;;;;;5056026;28;20070;-67
2021/05/27 03:13:43;;;;;;;1.00;0.20;;;;;;;;;;5055742;28;20456;-68
2021/05/27 03:16:08;;;;;;;0.43;0.23;;;;;;;;;;5055863;28;20483;-67
2021/05/27 03:18:33;;;;;;;0.30;0.10;;;;;;;;;;5055611;28;20250;-66
2021/05/27 03:20:59;;;;;;;0.22;0.10;;;;;;;;;;5056094;28;20242;-65
2021/05/27 03:23:24;;;;;;;0.17;0.08;;;;;;;;;;5055505;28;20433;-67
2021/05/27 03:25:50;;;;;;;0.40;0.10;;;;;;;;;;5054247;28;20016;-67
2021/05/27 03:28:15;;;;;;;1.87;0.10;;;;;;;;;;5055740;28;20250;-68
2021/05/27 03:30:40;;;;;;;0.10;0.00;;;;;;;;;;5055429;28;20740;-66
2021/05/27 03:33:05;;;;;;;0.00;0.00;;;;;;;;;;5055697;28;20306;-66
2021/05/27 03:35:31;;;;;;;0.60;0.10;;;;;;;;;;5037306;28;20622;-67
2021/05/27 03:37:56;;;;;;;0.73;0.10;;;;;;;;;;5055456;28;20722;-68
2021/05/27 03:40:22;;;;;;;0.30;0.00;;;;;;;;;;5055453;28;20035;-68
2021/05/27 03:42:49;;;;;;;0.20;0.10;;;;;;;;;;5054079;28;20295;-66
2021/05/27 03:45:18;;;;;;;0.63;0.05;;;;;;;;;;5055483;28;20459;-67
2021/05/27 03:47:43;;;;;;;0.70;0.28;;;;;;;;;;5053796;28;20044;-68
2021/05/27 03:50:10;;;;;;;0.30;0.10;;;;;;;;;;5055281;28;20021;-67
2021/05/27 03:52:38;;;;;;;0.80;0.10;;;;;;;;;;5054810;28;20040;-67
2021/05/27 03:55:08;;;;;;;0.38;0.20;;;;;;;;;;5055153;28;20017;-66
2021/05/27 03:57:33;;;;;;;0.88;0.10;;;;;;;;;;5054965;28;20484;-68
2021/05/27 04:02:47;;;;;;;0.00;0.00;;;;;;;;;;5054922;28;20020;-67
2021/05/27 04:07:57;;;;;;;0.52;0.05;;;;;;;;;;5035006;28;20076;-67
2021/05/27 04:10:23;;;;;;;0.10;0.00;;;;;;;;;;5034951;28;20025;-67
2021/05/27 04:12:48;;;;;;;0.10;0.00;;;;;;;;;;5034703;28;20029;-68
2021/05/27 04:15:25;;;;;;;0.20;0.00;;;;;;;;;;5034941;28;20025;-67
2021/05/27 04:18:00;;;;;;;0.30;0.10;;;;;;;;;;5033058;28;20095;-68
2021/05/27 04:20:32;;;;;;;0.38;0.10;;;;;;;;;;5034633;28;20021;-66
2021/05/27 04:22:58;;;;;;;0.30;0.10;;;;;;;;;;5034494;28;20121;-67
2021/05/27 04:25:25;;;;;;;1.05;0.20;;;;;;;;;;5034579;28;20132;-68
2021/05/27 04:27:50;;;;;;;0.38;0.10;;;;;;;;;;5034480;28;20026;-68
2021/05/27 04:30:16;;;;;;;0.57;0.43;;;;;;;;;;5034600;28;20386;-68
2021/05/27 04:33:03;;;;;;;0.05;0.00;;;;;;;;;;5034350;28;20383;-67
2021/05/27 04:35:38;;;;;;;0.40;0.10;;;;;;;;;;5053061;28;20255;-67
2021/05/27 04:38:03;;;;;;;0.20;0.03;;;;;;;;;;5054339;28;20028;-68
2021/05/27 04:40:28;;;;;;;0.00;0.00;;;;;;;;;;5053945;28;20020;-67
2021/05/27 04:42:54;;;;;;;0.20;0.08;;;;;;;;;;5053108;28;20035;-68
2021/05/27 04:45:19;;;;;;;0.63;0.30;;;;;;;;;;5054287;28;20020;-67
2021/05/27 04:47:44;;;;;;;0.10;0.10;;;;;;;;;;5054504;28;20009;-67
2021/05/27 04:50:10;;;;;;;0.45;0.03;;;;;;;;;;5054198;28;20464;-67
2021/05/27 04:52:35;;;;;;;0.35;0.10;;;;;;;;;;5053817;28;20040;-68
2021/05/27 04:55:01;;;;;;;0.20;0.10;;;;;;;;;;5054050;28;20048;-68
2021/05/27 04:57:26;;;;;;;0.45;0.10;;;;;;;;;;5053960;28;20021;-67
2021/05/27 04:59:51;;;;;;;0.40;0.10;;;;;;;;;;5052576;28;20449;-67
2021/05/27 05:02:17;;;;;;;0.77;0.20;;;;;;;;;;5053926;28;20250;-68
2021/05/27 05:04:42;;;;;;;0.38;0.08;;;;;;;;;;5051577;28;20302;-68
2021/05/27 05:07:07;;;;;;;0.15;0.10;;;;;;;;;;5052538;28;20062;-67
2021/05/27 05:09:32;;;;;;;0.50;0.20;;;;;;;;;;5053572;28;20017;-67
2021/05/27 05:11:58;;;;;;;0.52;0.10;;;;;;;;;;5053764;28;20017;-67
2021/05/27 05:14:23;;;;;;;0.20;0.00;;;;;;;;;;5053539;28;20025;-68
2021/05/27 05:16:48;;;;;;;0.30;0.00;;;;;;;;;;5053463;28;20070;-69
2021/05/27 05:19:13;;;;;;;0.40;0.00;;;;;;;;;;5053646;28;20597;-67
2021/05/27 05:21:38;;;;;;;0.53;0.10;;;;;;;;;;5052543;28;20285;-67
2021/05/27 05:24:04;;;;;;;0.00;0.00;;;;;;;;;;5053199;28;20416;-68
2021/05/27 05:26:29;;;;;;;0.20;0.20;;;;;;;;;;5053402;28;20472;-68
2021/05/27 05:28:54;;;;;;;1.38;0.10;;;;;;;;;;5052599;28;20021;-68
2021/05/27 05:31:19;;;;;;;1.48;0.00;;;;;;;;;;5053570;28;20039;-66
2021/05/27 05:33:44;;;;;;;0.00;0.00;;;;;;;;;;5052398;28;20066;-68
2021/05/27 05:36:09;;;;;;;0.20;0.10;;;;;;;;;;5044057;28;20036;-68
2021/05/27 05:38:35;;;;;;;0.20;0.10;;;;;;;;;;5032991;28;20063;-68
2021/05/27 05:41:01;;;;;;;0.60;0.00;;;;;;;;;;5033253;28;20809;-68
2021/05/27 05:43:26;;;;;;;0.20;0.00;;;;;;;;;;5033056;28;20033;-66
2021/05/27 05:45:51;;;;;;;0.47;0.10;;;;;;;;;;5033057;28;20063;-67
2021/05/27 05:48:17;;;;;;;0.20;0.03;;;;;;;;;;5033111;28;20029;-68
2021/05/27 05:50:46;;;;;;;0.50;0.20;;;;;;;;;;5032816;28;20034;-68
2021/05/27 05:53:11;;;;;;;0.40;0.17;;;;;;;;;;5033150;28;20243;-68
2021/05/27 05:55:37;;;;;;;0.20;0.20;;;;;;;;;;5032859;28;20025;-67
2021/05/27 05:58:03;;;;;;;1.13;0.08;;;;;;;;;;5032543;28;20550;-67
2021/05/27 06:00:29;;;;;;;0.25;0.00;;;;;;;;;;5032984;28;20029;-68
2021/05/27 06:02:54;;;;;;;0.25;0.03;;;;;;;;;;5034864;28;20013;-67
2021/05/27 06:05:20;;;;;;;0.20;0.00;;;;;;;;;;5052880;28;20040;-69
2021/05/27 06:07:45;;;;;;;0.20;0.10;;;;;;;;;;5051203;28;20333;-68
2021/05/27 06:10:10;;;;;;;0.40;0.10;;;;;;;;;;5052749;28;20140;-67
2021/05/27 06:12:36;;;;;;;0.08;0.03;;;;;;;;;;5040925;28;20263;-68
2021/05/27 06:15:01;;;;;;;0.52;0.10;;;;;;;;;;5043729;28;20040;-69
2021/05/27 06:17:26;;;;;;;0.20;0.00;;;;;;;;;;5044252;28;20049;-69
2021/05/27 06:19:51;;;;;;;0.00;0.00;;;;;;;;;;5038104;28;20741;-67
2021/05/27 06:22:16;;;;;;;0.43;0.10;;;;;;;;;;5052429;28;20032;-68
2021/05/27 06:24:42;;;;;;;0.00;0.00;;;;;;;;;;5041455;28;20764;-68
2021/05/27 06:27:07;;;;;;;1.13;0.15;;;;;;;;;;5043856;28;20265;-69
2021/05/27 06:29:32;;;;;;;1.35;0.20;;;;;;;;;;5034776;28;20021;-68
2021/05/27 06:31:57;;;;;;;0.50;0.20;;;;;;;;;;5052725;28;20017;-67
2021/05/27 06:34:23;;;;;;;0.10;0.00;;;;;;;;;;5043385;28;20755;-67
2021/05/27 06:36:49;;;;;;;0.00;0.00;;;;;;;;;;5042534;28;20125;-69
2021/05/27 06:39:14;;;;;;;0.87;0.20;;;;;;;;;;5034118;28;20112;-69
2021/05/27 06:41:39;;;;;;;0.75;0.10;;;;;;;;;;5038738;28;20726;-68
2021/05/27 06:44:04;;;;;;;0.37;0.00;;;;;;;;;;5051082;28;20025;-67
2021/05/27 06:46:29;;;;;;;0.20;0.10;;;;;;;;;;5045855;28;20017;-66
2021/05/27 06:48:56;;;;;;;0.65;0.10;;;;;;;;;;5046064;28;20021;-68
2021/05/27 06:51:21;;;;;;;0.35;0.10;;;;;;;;;;5051733;28;20036;-69
2021/05/27 06:53:46;;;;;;;0.10;0.00;;;;;;;;;;5043407;28;20090;-67
2021/05/27 06:56:11;;;;;;;0.00;0.00;;;;;;;;;;5049676;28;20144;-68
2021/05/27 06:58:37;;;;;;;1.03;0.10;;;;;;;;;;5043117;28;20472;-68
2021/05/27 07:01:02;;;;;;;0.77;0.30;;;;;;;;;;5045924;28;20266;-68
2021/05/27 07:03:28;;;;;;;0.88;0.10;;;;;;;;;;5047594;28;20357;-66
2021/05/27 07:05:53;;;;;;;0.40;0.10;;;;;;;;;;5036112;28;20560;-68
2021/05/27 07:08:19;;;;;;;0.88;0.10;;;;;;;;;;5043703;28;20104;-68
2021/05/27 07:10:45;;;;;;;0.30;0.10;;;;;;;;;;5037830;28;20034;-70
2021/05/27 07:13:10;;;;;;;0.77;0.00;;;;;;;;;;5037138;28;20376;-66
2021/05/27 07:15:36;;;;;;;0.22;0.15;;;;;;;;;;5038499;28;20485;-68
2021/05/27 07:18:02;;;;;;;0.50;0.10;;;;;;;;;;5036238;28;20465;-68
2021/05/27 07:20:27;;;;;;;0.55;0.10;;;;;;;;;;5034811;28;20022;-68
2021/05/27 07:22:53;;;;;;;0.63;0.22;;;;;;;;;;5046218;28;20208;-68
2021/05/27 07:25:20;;;;;;;0.70;0.10;;;;;;;;;;5051330;28;20043;-69
2021/05/27 07:27:48;;;;;;;0.45;0.10;;;;;;;;;;5045867;28;20104;-68
2021/05/27 07:30:13;;;;;;;0.63;0.10;;;;;;;;;;5048839;28;20017;-67
2021/05/27 07:32:38;;;;;;;0.30;0.00;;;;;;;;;;5036106;28;20469;-69
2021/05/27 07:35:07;;;;;;;0.50;0.10;;;;;;;;;;5033330;28;20083;-69
2021/05/27 07:37:32;;;;;;;0.20;0.20;;;;;;;;;;5033144;28;20250;-68
2021/05/27 07:39:57;;;;;;;0.40;0.10;;;;;;;;;;5033875;28;20091;-68
2021/05/27 07:42:22;;;;;;;0.65;0.10;;;;;;;;;;5032610;28;20450;-67
2021/05/27 07:44:48;;;;;;;0.25;0.20;;;;;;;;;;5038535;28;20360;-68
2021/05/27 07:47:13;;;;;;;1.73;0.20;;;;;;;;;;5044775;28;20071;-68
2021/05/27 07:49:38;;;;;;;0.77;0.20;;;;;;;;;;5040797;28;20029;-67
2021/05/27 07:52:04;;;;;;;0.33;0.20;;;;;;;;;;5046016;28;20033;-68
2021/05/27 07:54:29;;;;;;;2.58;0.13;;;;;;;;;;5045121;28;20752;-67
2021/05/27 07:56:54;;;;;;;0.05;0.05;;;;;;;;;;5043809;28;20021;-67
2021/05/27 07:59:20;;;;;;;1.13;0.13;;;;;;;;;;5040752;28;20111;-67
2021/05/27 08:01:45;;;;;;;0.20;0.03;;;;;;;;;;5041956;28;20258;-69
2021/05/27 08:04:10;;;;;;;0.82;0.10;;;;;;;;;;5045213;28;20434;-68
2021/05/27 08:06:36;;;;;;;0.30;0.10;;;;;;;;;;5049302;28;20013;-68
2021/05/27 08:09:02;;;;;;;0.45;0.17;;;;;;;;;;5051192;28;20324;-68
2021/05/27 08:11:27;;;;;;;1.85;0.20;;;;;;;;;;5042716;28;20029;-68
2021/05/27 08:13:52;;;;;;;1.45;0.10;;;;;;;;;;5032090;28;20457;-67
2021/05/27 08:16:18;;;;;;;0.80;0.10;;;;;;;;;;5039746;28;20436;-70
2021/05/27 08:18:43;;;;;;;1.20;0.30;;;;;;;;;;5051591;28;20121;-67
2021/05/27 08:21:08;;;;;;;1.30;0.20;;;;;;;;;;5045254;28;20079;-68
2021/05/27 08:23:34;;;;;;;0.55;0.10;;;;;;;;;;5033138;28;20043;-69
2021/05/27 08:25:59;;;;;;;0.17;0.05;;;;;;;;;;5035180;28;20446;-68
2021/05/27 08:28:24;;;;;;;0.47;0.15;;;;;;;;;;5040585;28;20021;-67
2021/05/27 08:30:49;;;;;;;0.27;0.07;;;;;;;;;;5047325;28;20031;-69
2021/05/27 08:33:15;;;;;;;1.75;0.10;;;;;;;;;;5045293;28;20257;-67
2021/05/27 08:35:40;;;;;;;0.95;0.03;;;;;;;;;;5046811;28;20063;-67
2021/05/27 08:38:05;;;;;;;1.00;0.10;;;;;;;;;;5051519;28;20100;-68
2021/05/27 08:40:30;;;;;;;0.38;0.10;;;;;;;;;;5070819;28;20605;-66
2021/05/27 08:42:57;;;;;;;0.30;0.10;;;;;;;;;;5056726;28;20274;-64
2021/05/27 08:45:25;;;;;;;0.30;0.00;;;;;;;;;;5053248;28;20461;-65
2021/05/27 08:47:51;;;;;;;0.20;0.10;;;;;;;;;;5048383;28;20022;-65
2021/05/27 08:50:16;;;;;;;0.65;0.03;;;;;;;;;;5048256;28;20021;-67
2021/05/27 08:52:41;;;;;;;0.17;0.17;;;;;;;;;;5043411;28;20013;-67
2021/05/27 08:55:07;;;;;;;1.38;0.20;;;;;;;;;;5046876;28;20452;-68
2021/05/27 08:57:32;;;;;;;1.63;0.10;;;;;;;;;;5047810;28;20539;-66
2021/05/27 08:59:57;;;;;;;0.27;0.00;;;;;;;;;;5040804;28;20021;-66
2021/05/27 09:02:22;;;;;;;1.07;0.00;;;;;;;;;;5035080;28;20026;-68
2021/05/27 09:04:47;;;;;;;0.10;0.00;;;;;;;;;;5046886;28;20357;-67
2021/05/27 09:07:13;;;;;;;0.20;0.10;;;;;;;;;;5045531;28;20469;-68
2021/05/27 09:09:55;;;;;;;0.63;0.08;;;;;;;;;;5034677;28;20142;-69
2021/05/27 09:12:26;;;;;;;0.40;0.00;;;;;;;;;;5045846;28;20009;-68
2021/05/27 09:14:51;;;;;;;0.63;0.10;;;;;;;;;;5050726;28;20476;-69
2021/05/27 09:17:16;;;;;;;0.50;0.10;;;;;;;;;;5037226;28;20040;-68
2021/05/27 09:19:41;;;;;;;0.45;0.20;;;;;;;;;;5036143;28;20454;-68
2021/05/27 09:22:20;;;;;;;0.73;0.00;;;;;;;;;;5034003;28;20028;-68
2021/05/27 09:24:49;;;;;;;0.15;0.00;;;;;;;;;;5033338;28;20033;-71
2021/05/27 09:27:14;;;;;;;0.60;0.10;;;;;;;;;;5045621;28;20016;-68
2021/05/27 09:29:45;;;;;;;0.22;0.00;;;;;;;;;;5046283;28;20770;-71
2021/05/27 09:32:11;;;;;;;0.52;0.03;;;;;;;;;;5039510;28;20025;-70
2021/05/27 09:34:46;;;;;;;0.30;0.10;;;;;;;;;;5036971;28;20111;-70
2021/05/27 09:37:22;;;;;;;1.10;0.00;;;;;;;;;;5034239;28;20025;-69
2021/05/27 09:39:49;;;;;;;0.40;0.05;;;;;;;;;;5042264;28;20026;-69
2021/05/27 09:42:14;;;;;;;1.10;0.20;;;;;;;;;;5039495;28;20020;-69
2021/05/27 09:44:40;;;;;;;0.50;0.10;;;;;;;;;;5037795;28;20018;-68
2021/05/27 09:47:05;;;;;;;0.45;0.05;;;;;;;;;;5048981;28;20609;-70
2021/05/27 09:49:33;;;;;;;0.10;0.10;;;;;;;;;;5044376;28;20014;-68
2021/05/27 09:52:12;;;;;;;0.10;0.10;;;;;;;;;;5038167;28;20097;-68
2021/05/27 09:55:03;;;;;;;0.20;0.00;;;;;;;;;;5036091;28;20071;-68
2021/05/27 09:57:29;;;;;;;0.60;0.10;;;;;;;;;;5038967;28;20364;-69
2021/05/27 09:59:55;;;;;;;1.30;0.08;;;;;;;;;;5048729;28;20357;-68
2021/05/27 10:02:22;;;;;;;1.40;0.10;;;;;;;;;;5032938;28;20116;-68
2021/05/27 10:04:53;;;;;;;0.85;0.10;;;;;;;;;;5039706;28;20487;-70
2021/05/27 10:07:37;;;;;;;1.13;0.30;;;;;;;;;;5051073;28;20048;-69
2021/05/27 10:10:04;;;;;;;0.53;0.07;;;;;;;;;;5052682;28;20028;-69
2021/05/27 10:12:35;;;;;;;0.17;0.10;;;;;;;;;;5034389;28;20282;-68
2021/05/27 10:15:00;;;;;;;0.40;0.05;;;;;;;;;;5041632;28;20159;-69
2021/05/27 10:17:26;;;;;;;0.55;0.05;;;;;;;;;;5043200;28;20469;-67
2021/05/27 10:19:51;;;;;;;0.47;0.10;;;;;;;;;;5037921;28;20029;-69
2021/05/27 10:22:16;;;;;;;0.28;0.00;;;;;;;;;;5032884;28;20030;-68
2021/05/27 10:24:43;;;;;;;0.43;0.10;;;;;;;;;;5030338;28;20381;-68
2021/05/27 10:27:08;;;;;;;0.47;0.10;;;;;;;;;;5033873;28;20047;-69
2021/05/27 10:29:34;;;;;;;0.10;0.00;;;;;;;;;;5049685;28;20013;-68
2021/05/27 10:31:59;;;;;;;0.22;0.00;;;;;;;;;;5048113;28;20782;-67
2021/05/27 10:34:41;;;;;;;0.05;0.00;;;;;;;;;;5049740;28;20484;-68
2021/05/27 10:37:06;;;;;;;0.15;0.00;;;;;;;;;;5034279;28;20500;-67
2021/05/27 10:39:32;;;;;;;0.22;0.00;;;;;;;;;;5051106;28;20017;-69
2021/05/27 10:41:57;;;;;;;1.00;0.17;;;;;;;;;;5052379;28;20104;-69
2021/05/27 10:44:23;;;;;;;0.85;0.15;;;;;;;;;;5052256;28;20035;-69
2021/05/27 10:46:48;;;;;;;0.70;0.10;;;;;;;;;;5050841;28;20029;-69
2021/05/27 10:49:33;;;;;;;0.68;0.10;;;;;;;;;;5051035;28;20025;-68
2021/05/27 10:52:17;;;;;;;0.52;0.10;;;;;;;;;;5032224;28;20022;-68
2021/05/27 10:54:44;;;;;;;0.35;0.10;;;;;;;;;;5032110;28;20032;-69
2021/05/27 10:57:10;;;;;;;0.10;0.05;;;;;;;;;;5032427;28;20022;-68
2021/05/27 10:59:35;;;;;;;0.17;0.10;;;;;;;;;;5030917;28;20017;-68
2021/05/27 11:02:00;;;;;;;0.70;0.10;;;;;;;;;;5032656;28;20251;-70
2021/05/27 11:04:28;;;;;;;0.10;0.00;;;;;;;;;;5032066;28;20033;-69
2021/05/27 11:07:32;;;;;;;0.60;0.10;;;;;;;;;;5032199;28;20018;-69
2021/05/27 11:09:58;;;;;;;0.20;0.10;;;;;;;;;;5009946;28;20032;-68
2021/05/27 11:12:24;;;;;;;0.40;0.15;;;;;;;;;;4993677;28;20037;-70
2021/05/27 11:14:52;;;;;;;0.35;0.17;;;;;;;;;;5009878;28;20034;-69
2021/05/27 11:17:19;;;;;;;0.10;0.10;;;;;;;;;;5011588;28;20033;-68
2021/05/27 11:19:51;;;;;;;0.43;0.10;;;;;;;;;;5029602;28;20025;-68
2021/05/27 11:25:12;;;;;;;1.02;0.10;;;;;;;;;;5029573;28;20607;-68
2021/05/27 11:27:48;;;;;;;0.45;0.10;;;;;;;;;;5032411;28;20346;-68
2021/05/27 11:30:17;;;;;;;0.63;0.00;;;;;;;;;;5028466;28;20025;-69
2021/05/27 11:32:43;;;;;;;0.93;0.10;;;;;;;;;;5004009;28;20029;-68
2021/05/27 11:35:08;;;;;;;0.10;0.10;;;;;;;;;;5020467;28;20042;-69
2021/05/27 11:37:37;;;;;;;0.20;0.00;;;;;;;;;;5025134;28;20103;-69
2021/05/27 11:40:03;;;;;;;0.03;0.00;;;;;;;;;;5019634;28;20037;-68
2021/05/27 11:42:28;;;;;;;0.55;0.00;;;;;;;;;;5038512;28;20036;-69
2021/05/27 11:44:54;;;;;;;0.85;0.10;;;;;;;;;;5038154;28;20029;-70
2021/05/27 11:47:19;;;;;;;0.30;0.05;;;;;;;;;;5048980;28;20021;-68
2021/05/27 11:50:00;;;;;;;0.20;0.08;;;;;;;;;;5037122;28;20014;-69
2021/05/27 11:52:25;;;;;;;0.82;0.30;;;;;;;;;;5044342;28;20028;-68
2021/05/27 11:54:52;;;;;;;0.57;0.13;;;;;;;;;;5040913;28;20025;-69
2021/05/27 11:57:18;;;;;;;0.22;0.00;;;;;;;;;;5038008;28;20033;-69
2021/05/27 11:59:43;;;;;;;0.65;0.20;;;;;;;;;;5038500;28;20017;-68
2021/05/27 12:02:10;;;;;;;0.70;0.10;;;;;;;;;;5043915;28;20021;-68
2021/05/27 12:04:35;;;;;;;0.63;0.17;;;;;;;;;;5039919;28;20365;-69
2021/05/27 12:07:00;;;;;;;0.32;0.00;;;;;;;;;;5048740;28;20447;-69
2021/05/27 12:09:31;;;;;;;1.15;0.10;;;;;;;;;;5034343;28;20045;-69
2021/05/27 12:11:58;;;;;;;1.15;0.15;;;;;;;;;;5034743;28;20056;-70
2021/05/27 12:14:24;;;;;;;0.22;0.10;;;;;;;;;;5042811;28;20017;-68
2021/05/27 12:16:50;;;;;;;0.43;0.03;;;;;;;;;;5046442;28;20123;-69
2021/05/27 12:19:15;;;;;;;0.93;0.20;;;;;;;;;;5038955;28;20025;-69
2021/05/27 12:21:54;;;;;;;0.20;0.20;;;;;;;;;;5043412;28;20021;-68
2021/05/27 12:24:22;;;;;;;0.65;0.10;;;;;;;;;;5034874;28;20113;-68
2021/05/27 12:26:48;;;;;;;0.77;0.10;;;;;;;;;;5049440;28;20081;-67
2021/05/27 12:29:13;;;;;;;0.60;0.05;;;;;;;;;;5046220;28;20468;-68
2021/05/27 12:31:39;;;;;;;1.50;0.30;;;;;;;;;;5037449;28;20107;-68
2021/05/27 12:34:07;;;;;;;0.83;0.10;;;;;;;;;;5038453;28;20029;-67
2021/05/27 12:36:32;;;;;;;0.50;0.20;;;;;;;;;;5044830;28;20246;-67
2021/05/27 12:38:57;;;;;;;0.90;0.13;;;;;;;;;;5051576;28;20376;-67
2021/05/27 12:41:23;;;;;;;2.03;0.30;;;;;;;;;;5051801;28;20254;-68
2021/05/27 12:43:49;;;;;;;1.47;0.20;;;;;;;;;;5048958;28;20288;-69
2021/05/27 12:46:16;;;;;;;0.80;0.10;;;;;;;;;;5049705;28;20262;-68
2021/05/27 12:48:51;;;;;;;0.57;0.10;;;;;;;;;;5043878;28;20013;-66
2021/05/27 12:51:17;;;;;;;0.75;0.10;;;;;;;;;;5034918;28;20023;-68
2021/05/27 12:53:45;;;;;;;1.00;0.08;;;;;;;;;;5039916;28;20017;-67
2021/05/27 12:56:22;;;;;;;0.20;0.10;;;;;;;;;;5037029;28;20021;-66
2021/05/27 12:59:02;;;;;;;0.73;0.10;;;;;;;;;;5034880;28;20052;-67
2021/05/27 13:01:31;;;;;;;0.73;0.10;;;;;;;;;;5034149;28;20109;-66
2021/05/27 13:03:57;;;;;;;0.20;0.10;;;;;;;;;;5033196;28;20021;-67
2021/05/27 13:06:23;;;;;;;0.20;0.10;;;;;;;;;;5038710;28;20479;-68
2021/05/27 13:08:54;;;;;;;0.65;0.10;;;;;;;;;;5040110;28;20024;-66
2021/05/27 13:11:26;;;;;;;0.30;0.00;;;;;;;;;;5033076;28;20105;-67
2021/05/27 13:13:52;;;;;;;0.55;0.10;;;;;;;;;;5044173;28;20118;-67
2021/05/27 13:16:33;;;;;;;0.30;0.00;;;;;;;;;;5045093;28;20030;-66
2021/05/27 13:18:59;;;;;;;1.55;0.28;;;;;;;;;;5045744;28;20499;-67
2021/05/27 13:21:34;;;;;;;1.10;0.10;;;;;;;;;;5037928;28;20037;-66
2021/05/27 13:24:12;;;;;;;0.17;0.00;;;;;;;;;;5037828;28;20040;-67
2021/05/27 13:26:39;;;;;;;0.55;0.10;;;;;;;;;;5034209;28;20025;-67
2021/05/27 13:29:04;;;;;;;0.52;0.10;;;;;;;;;;5047544;28;20017;-67
2021/05/27 13:31:36;;;;;;;0.10;0.00;;;;;;;;;;5048462;28;20024;-67
2021/05/27 13:34:02;;;;;;;0.85;0.22;;;;;;;;;;5031721;28;20144;-68
2021/05/27 13:36:27;;;;;;;1.35;0.25;;;;;;;;;;5038630;28;20111;-68
2021/05/27 13:38:52;;;;;;;0.87;0.10;;;;;;;;;;5036168;28;20079;-67
2021/05/27 13:41:17;;;;;;;1.03;0.10;;;;;;;;;;5039575;28;20725;-68
2021/05/27 13:43:43;;;;;;;0.37;0.00;;;;;;;;;;5039116;28;20278;-66
2021/05/27 13:46:08;;;;;;;0.85;0.15;;;;;;;;;;5037418;28;20381;-67
2021/05/27 13:48:35;;;;;;;0.88;0.10;;;;;;;;;;5037811;28;20053;-67
2021/05/27 13:51:00;;;;;;;0.17;0.10;;;;;;;;;;5037565;28;20020;-68
2021/05/27 13:53:25;;;;;;;0.75;0.20;;;;;;;;;;5042511;28;20017;-66
2021/05/27 13:55:53;;;;;;;0.90;0.07;;;;;;;;;;5042326;28;20131;-68
2021/05/27 13:58:20;;;;;;;0.32;0.17;;;;;;;;;;5039979;28;20737;-68
2021/05/27 14:00:45;;;;;;;0.20;0.00;;;;;;;;;;5044317;28;20438;-66
2021/05/27 14:03:10;;;;;;;1.50;0.15;;;;;;;;;;5048520;28;20240;-69
2021/05/27 14:05:35;;;;;;;0.40;0.00;;;;;;;;;;5051790;28;20448;-67
2021/05/27 14:08:02;;;;;;;1.15;0.20;;;;;;;;;;5050175;28;20456;-66
2021/05/27 14:10:27;;;;;;;1.20;0.08;;;;;;;;;;5032281;28;20031;-68
2021/05/27 14:12:52;;;;;;;0.37;0.10;;;;;;;;;;5032952;28;20013;-67
2021/05/27 14:15:18;;;;;;;0.93;0.10;;;;;;;;;;5031934;28;20017;-68
2021/05/27 14:17:43;;;;;;;0.30;0.00;;;;;;;;;;5034076;28;20017;-68
2021/05/27 14:20:09;;;;;;;0.53;0.10;;;;;;;;;;5031534;28;20021;-67
2021/05/27 14:22:34;;;;;;;0.90;0.10;;;;;;;;;;5033396;28;20259;-66
2021/05/27 14:25:00;;;;;;;1.63;0.10;;;;;;;;;;5048758;28;20116;-68
2021/05/27 14:27:25;;;;;;;0.25;0.10;;;;;;;;;;5038153;28;20021;-68
2021/05/27 14:29:51;;;;;;;0.32;0.10;;;;;;;;;;5033875;28;20025;-68
2021/05/27 14:32:16;;;;;;;0.57;0.08;;;;;;;;;;5045924;28;20017;-67
2021/05/27 14:34:42;;;;;;;0.30;0.20;;;;;;;;;;5032289;28;20029;-67
2021/05/27 14:37:07;;;;;;;0.10;0.00;;;;;;;;;;5032462;28;20576;-67
2021/05/27 14:39:32;;;;;;;0.50;0.10;;;;;;;;;;5032297;28;20071;-69
2021/05/27 14:41:58;;;;;;;0.50;0.08;;;;;;;;;;5032491;28;20055;-66
2021/05/27 14:44:23;;;;;;;0.20;0.00;;;;;;;;;;5033568;28;20067;-67
2021/05/27 14:46:48;;;;;;;0.70;0.10;;;;;;;;;;5047334;28;20048;-68
2021/05/27 14:49:13;;;;;;;0.00;0.00;;;;;;;;;;5051398;28;20045;-68
2021/05/27 14:51:38;;;;;;;0.80;0.10;;;;;;;;;;5050733;28;20598;-67